Andrew Aaronson

Recruteur en chef - Vancouver Whitecaps
3 Avr 2027
Samedi
Processus

Personnalité

Adaptabilité (18) Ambition (3) Controverse (1) Loyauté (7) Pression (6) Professionnalisme (10) Sportivité (3) Tempérament (19)

Profil

Style d'entraînement Démocratique
Diplôme National A
Détermination 11
Gestion des joueurs 10
Motivation 10
Discipline 10
Satisfaction professionnelle
100%
Fatigue
0%
Rôle Recruteur en chef
Salaire 38.2K p/s
Contrat 14.03.2028

Performance

Comportement Bon
Efficacité de l'entraînement
29%
Développement des joueurs
25%
Prévention des blessures
55%
Mise en place tactique
20%

Événements récents

A participé à une réunion de recrutement maintenant
A recommandé une cible de transfert maintenant
A recommandé une cible de transfert maintenant
A participé à une réunion de recrutement maintenant
A participé à une réunion de recrutement 7j
A recommandé une cible de transfert 7j
A recommandé une cible de transfert 7j
A participé à une réunion de recrutement 7j

Suivi en cours

189
Joueur Club Statut Capacité Confiance Observé Dernière observation Dernier vote
Wandile Duba Bidvest Wits Actif 96 / 100 40% 8 31.03.2027 -
Aune Heggebø West Bromwich Albion Actif 127 / 121 40% 1 31.03.2027 -
Haji Wright Coventry City Actif 124 / 129 40% 1 31.03.2027 -
Josh Windass Wrexham Actif 128 / 118 40% 2 22.03.2027 -
Mohamed-Ali Cho Hull City Actif 136 / 140 40% 1 22.03.2027 -
Joe Gelhardt Hull City Actif 125 / 137 40% 1 22.03.2027 -
Hwang Hee-Chan Wolverhampton Actif 125 / 135 40% 2 16.03.2027 -
Elijah Adebayo Luton Town Actif 131 / 128 40% 1 16.03.2027 -
Harry Cornick AFC Wimbledon Actif 111 / 102 40% 1 16.03.2027 -
Yousef Salech Cardiff City Actif 130 / 113 40% 1 01.03.2027 -
Gonzalo Plata Dinamo Moscow Actif 136 / 140 40% 1 01.03.2027 -
Iwan Morgan Grimsby Town Actif 113 / 110 40% 3 22.02.2027 -
Dom Ballard Leyton Orient Actif 109 / 114 40% 3 22.02.2027 -
Rui Costa Port Vale Actif 115 / 97 40% 1 22.02.2027 -
Fredrik Sjøvold Anderlecht Négociation 132 / 136 64% 1 14.02.2027 Approuver
Caio Vidal Granada Actif 128 / 129 63% 1 14.02.2027 Approuver
Iqraam Rayners Mamelodi Sundowns Actif 124 / 138 40% 9 13.02.2027 -
Solly Khunyedi Bloemfontein Celtic Perdu 107 / 102 40% 4 13.02.2027 -
Kyle Joseph Middlesbrough Actif 120 / 111 40% 1 13.02.2027 -
Niall Ennis Blackpool Actif 115 / 120 40% 2 12.02.2027 -
Percy Erasmus SuperSport United Actif 138 / 135 40% 5 12.02.2027 -
Mathias Kvistgaarden Norwich City Actif 121 / 132 40% 1 12.02.2027 -
Keagan Mothiba SuperSport United Actif 125 / 118 40% 9 11.02.2027 -
Aaron Drinan Swindon Town Actif 99 / 107 40% 2 11.02.2027 -
Harry Leonard Peterborough United Actif 108 / 105 40% 2 11.02.2027 -
Itumeleng Tau Ajax Cape Town Actif 113 / 109 40% 6 10.02.2027 -
Michael Smith Mansfield Town Perdu 119 / 110 40% 1 10.02.2027 -
Kwame Opoku Asante Kotoko Actif 90 / 99 40% 3 09.02.2027 -
Michael Baidoo Plymouth Argyle Actif 131 / 125 40% 1 09.02.2027 -
Alex Robertson Cardiff City Actif 122 / 113 40% 1 09.02.2027 -
Louie Barry Sheffield Wednesday Actif 123 / 119 40% 1 09.02.2027 -
Leandro Andrade Polissia Actif 139 / 123 40% 5 08.02.2027 Observer
Ronaldo Rostov Actif 130 / 118 40% 1 08.02.2027 -
Zeidane Inoussa Swansea City Actif 123 / 127 40% 1 08.02.2027 -
Ibrahim Tarek Masr El Makasa Actif 123 / 136 40% 5 07.02.2027 -
Cristian Shpendi Cesena Actif 123 / 128 40% 1 07.02.2027 -
Kelly Saravanan Salford City Actif 117 / 116 40% 3 05.02.2027 -
Zack Nelson Accrington Stanley Actif 105 / 112 40% 1 05.02.2027 -
Jayden Luker Bromley Actif 95 / 98 40% 1 05.02.2027 -
Brayan León Mamelodi Sundowns Actif 122 / 105 40% 8 03.02.2027 -
Osman Partey BA All Stars Actif 102 / 93 40% 1 03.02.2027 -
Evidence Makgopa Orlando Pirates Actif 117 / 106 40% 5 02.02.2027 -
Achraf Bencharki Al Ahly Actif 134 / 125 40% 7 02.02.2027 -
Ali Soliman Masr El Makasa Actif 131 / 122 40% 5 01.02.2027 Observer
Lorent Tolaj Plymouth Argyle Actif 120 / 112 40% 2 31.01.2027 -
Malik Mothersille Stockport County Actif 105 / 122 40% 2 31.01.2027 -
Rocco Vata Watford Actif 113 / 114 40% 3 30.01.2027 -
Themba Manyama Ajax Cape Town Actif 118 / 103 40% 11 26.01.2027 -
Fábio Tavares Newport County Actif 98 / 107 40% 1 26.01.2027 -
Haissem Hassan Bloemfontein Celtic Actif 140 / 124 40% 1 26.01.2027 -
Jason Knight Bristol City Actif 122 / 139 40% 1 26.01.2027 -
Marcus Browne AFC Wimbledon Actif 96 / 98 40% 4 24.01.2027 -
Evidence Mokoena Platinum Stars Actif 100 / 99 40% 7 23.01.2027 -
Yeangel Montero Naxxar Lions Actif 97 / 106 40% 3 23.01.2027 -
Oswin Appollis Orlando Pirates Actif 126 / 127 40% 4 23.01.2027 -
Pelle Mattsson Norwich City Actif 132 / 116 40% 3 23.01.2027 -
Fabrizio Cavegn Bristol Rovers Actif 100 / 101 40% 2 23.01.2027 -
Reda Khadra Qarabag Actif 122 / 125 40% 1 23.01.2027 -
Karlan Grant West Bromwich Albion Actif 121 / 115 40% 3 20.01.2027 -
Kagiso Malinga Bidvest Wits Actif 96 / 88 40% 4 19.01.2027 -
Stephen Amankona Aduana Stars Actif 82 / 89 40% 2 18.01.2027 -
Othmane Maamma Watford Actif 130 / 116 40% 1 17.01.2027 -
Mihailo Ivanović Millwall Actif 124 / 119 40% 1 17.01.2027 -
Sam Nombe Milton Keynes Dons Actif 117 / 115 40% 8 15.01.2027 -
Tyler Goodrham Oxford United Actif 112 / 119 40% 1 15.01.2027 -
Emil Riis Bristol City Actif 130 / 115 40% 1 13.01.2027 -
Peter Shalulile Mamelodi Sundowns Actif 136 / 134 40% 7 12.01.2027 -
Nikos Karelis Sliema Wanderers Actif 107 / 88 40% 2 12.01.2027 -
Derensili Sanches Fernandes Huddersfield Town Actif 117 / 112 40% 2 12.01.2027 -
Jack Diamond Stockport County Actif 119 / 118 40% 1 12.01.2027 -
Diego Gómez Brighton Actif 151 / 143 40% 1 12.01.2027 -
Jordan Roberts Stevenage Actif 111 / 120 40% 7 09.01.2027 -
Oscar Fraulo Derby County Actif 119 / 122 40% 2 08.01.2027 -
Bitello Dinamo Moscow Actif 124 / 145 40% 1 08.01.2027 -
Brodie Spencer Oxford United Actif 110 / 137 40% 1 08.01.2027 -
Melker Widell Swansea City Actif 126 / 115 40% 1 07.01.2027 -
Mads Roerslev Southampton Actif 113 / 133 40% 2 06.01.2027 -
Harvey Vale Queens Park Rangers Actif 133 / 130 40% 1 05.01.2027 -
Luke Thomas Leicester City Actif 139 / 120 40% 1 31.12.2026 -
Harry Smith Barnet Actif 94 / 94 40% 1 28.12.2026 -
Hlompho Modiba Black Aces Actif 87 / 95 40% 4 27.12.2026 -
Dale Taylor Blackpool Actif 113 / 116 40% 1 26.12.2026 -
Jerome Karelse Golden Arrows Actif 104 / 92 40% 4 25.12.2026 -
Kyle Wootton Stockport County Actif 112 / 124 40% 1 25.12.2026 -
Juan Bisanz Huracán Actif 130 / 123 40% 1 25.12.2026 -
Joaquín Gho Argentinos Juniors Actif 122 / 130 40% 1 25.12.2026 -
Tyrese Shade Burton Albion Actif 95 / 109 40% 5 22.12.2026 -
Samuel Julies University of Pretoria Actif 95 / 90 40% 3 20.12.2026 -
Qara Ozobic Inter Actif 117 / 94 40% 1 20.12.2026 -
Thokozani Sekotlong University of Pretoria Actif 102 / 108 40% 2 18.12.2026 -
Damir Céter Hamrun Spartans Actif 98 / 103 40% 1 18.12.2026 -
Diamanka Senghor Mosta Actif 102 / 89 40% 1 16.12.2026 -
Ola Brynhildsen Bodo/Glimt Actif 125 / 121 40% 5 15.12.2026 -
Aarón Molinas Defensa y Justicia Actif 127 / 122 40% 1 15.12.2026 -
Teboho Mahlangu Free State Stars Actif 103 / 105 40% 1 15.12.2026 -
Camilo Durán Bloemfontein Celtic Actif 133 / 123 40% 5 13.12.2026 -
Antoine Griezmann Orlando City Actif 149 / 145 40% 5 13.12.2026 -
Santiago Rodríguez Gimnasia y Esgrima Actif 126 / 121 40% 1 11.12.2026 -
Tom Bradshaw Feirense Actif 98 / 94 40% 1 10.12.2026 -
José Barreto Fehervar Actif 109 / 108 40% 2 08.12.2026 -
Victor Mbaoma Tusker Actif 100 / 92 40% 3 05.12.2026 -
Dániel Lukács Puskas Akademia Actif 113 / 99 40% 1 05.12.2026 -
Brandon Hanlan Doncaster Rovers Actif 100 / 103 40% 4 04.12.2026 -
Kane Drummond Oldham Athletic Actif 82 / 89 40% 1 04.12.2026 -
Rivaldo Ngcobo Free State Stars Actif 117 / 102 40% 1 04.12.2026 -
Denis Bouanga Los Angeles Football Club Actif 133 / 129 40% 7 02.12.2026 -
Hakeeb Adelakun Doncaster Rovers Actif 97 / 93 40% 3 02.12.2026 -
Stephen Humphrys Bradford City Actif 121 / 111 40% 5 01.12.2026 -
Julio Alonso Huesca Actif 115 / 113 40% 1 01.12.2026 -
Yannick Bright Inter Miami CF Actif 127 / 122 40% 1 01.12.2026 -
Etiosa Ighodaro Kaizer Chiefs Actif 106 / 100 40% 2 29.11.2026 -
Matías Pellegrini Vélez Actif 127 / 115 40% 1 29.11.2026 -
Rok Zajc NK Domzale Actif 123 / 119 40% 4 27.11.2026 -
Daniel Udoh Salford City Actif 94 / 110 40% 3 26.11.2026 -
Samuel Amoah Liberty Professionals Actif 95 / 86 40% 1 26.11.2026 -
Veljko Birmančević Ferencvaros Actif 125 / 135 40% 1 25.11.2026 -
Kenan Dervišagić Floriana Actif 93 / 94 40% 1 25.11.2026 -
Matej Trusa DAC Dunajska Streda Actif 106 / 120 40% 1 25.11.2026 -
Matty Stevens AFC Wimbledon Actif 115 / 95 40% 5 24.11.2026 -
Pedro Zenit Actif 137 / 140 40% 1 21.11.2026 -
Sean Zawadzki Columbus Crew Actif 130 / 120 40% 2 16.11.2026 -
Amos Inusah Wa All Stars Actif 114 / 106 40% 2 13.11.2026 -
Samuel Adegbenro Dynamo Kyiv Actif 119 / 113 40% 7 10.11.2026 -
Louis Appéré Cambridge United Actif 86 / 105 40% 1 09.11.2026 -
Jack Vale Alcione Milano Actif 95 / 98 40% 1 08.11.2026 -
Luther Zwane Platinum Stars Actif 112 / 100 40% 3 06.11.2026 -
Franklin Sasere Birkirkara Actif 89 / 84 40% 1 06.11.2026 -
Dor Turgeman New England Revolution Actif 133 / 123 40% 1 05.11.2026 -
Jack Currie Oxford United Actif 123 / 133 40% 1 05.11.2026 -
Carles Gil New England Revolution Actif 140 / 138 40% 6 03.11.2026 -
Gift Motupa Bloemfontein Celtic Actif 112 / 108 40% 3 31.10.2026 -
Majeed Waris JS Kabylie Actif 116 / 128 40% 3 30.10.2026 -
Oto John CR Belouizdad Actif 114 / 104 40% 2 27.10.2026 -
Angelo Gattermayer Wolfsberger AC Actif 120 / 124 40% 1 27.10.2026 -
James Eto'o CSKA Sofia Actif 114 / 130 40% 1 27.10.2026 -
Armstrong Oko-Flex Levski Actif 124 / 112 40% 1 26.10.2026 -
Timo Werner San Jose Earthquakes Actif 127 / 131 40% 1 24.10.2026 -
Vinicius Tobias Shakhtar Actif 140 / 137 40% 1 24.10.2026 -
Håkon Evjen Bodo/Glimt Actif 137 / 130 40% 1 24.10.2026 -
Robert Murić Floriana Actif 109 / 93 40% 3 22.10.2026 -
Promise Omochere Bristol Rovers Actif 92 / 87 40% 1 22.10.2026 -
Ibrahim Aliyu Houston Dynamo Actif 109 / 110 40% 2 21.10.2026 -
Emil Breivik Molde Actif 136 / 127 40% 1 19.10.2026 -
Suleiman Camara Slovan Bratislava Actif 113 / 113 40% 1 19.10.2026 -
Oleh Ocheretko Shakhtar Actif 125 / 122 40% 1 19.10.2026 -
Sebastian Soto ES Ben Aknoun Actif 89 / 91 40% 1 17.10.2026 -
Thomas Agyepong Berekum Chelsea Actif 93 / 105 40% 1 14.10.2026 -
Ştefan Baiaram Universitatea Craiova Actif 125 / 132 40% 1 13.10.2026 -
Relebohile Mofokeng Orlando Pirates Actif 112 / 116 40% 1 13.10.2026 -
Elías Báez Atlanta United FC Actif 118 / 135 40% 1 10.10.2026 -
Matthias Seidl Rapid Wien Actif 130 / 118 40% 1 10.10.2026 -
Mauricio Amaro Atlanta United FC Actif 117 / 130 40% 1 09.10.2026 -
Damián Puebla Orenburg Actif 119 / 134 40% 1 09.10.2026 -
Antonio Galeano Remo Stars Actif 114 / 127 40% 1 09.10.2026 -
Odin Bjørtuft Bodo/Glimt Actif 136 / 125 40% 1 06.10.2026 -
Samuel Anakwe Remo Stars Actif 88 / 91 40% 2 05.10.2026 -
Ahmed Musa Kano Pillars Actif 98 / 94 40% 1 03.10.2026 -
Derrick Otanga Kakamega Homeboyz Actif 93 / 103 40% 2 01.10.2026 -
Kein Sato FC Tokyo Actif 119 / 133 40% 2 29.09.2026 -
Maurice Malone Minnesota United FC Actif 115 / 125 40% 3 28.09.2026 -
Indiana Vassilev Philadelphia Union Actif 112 / 123 40% 1 26.09.2026 -
Lewis Morgan San Diego Football Club Actif 131 / 124 40% 1 26.09.2026 -
Danny Welbeck Chelsea Actif 158 / 140 40% 1 25.09.2026 -
Elliott List Northampton Town Actif 81 / 95 40% 1 24.09.2026 -
Beryly Lubala CSKA 1948 Actif 101 / 95 40% 1 24.09.2026 -
Robert Mizo Remo Stars Actif 99 / 101 40% 1 21.09.2026 -
Robin Lod Chicago Fire Actif 132 / 123 40% 3 18.09.2026 -
Suleiman Abdullahi Military Production Actif 93 / 99 40% 1 18.09.2026 -
Sunday Megwo Abia Warriors Actif 98 / 94 40% 2 14.09.2026 -
Jordan Morris Seattle Sounders Actif 135 / 119 40% 2 13.09.2026 -
Tyler Fletcher Manchester United Actif 95 / 104 40% 1 13.09.2026 -
Keagan Hlatshwayo SuperSport United Actif 116 / 111 40% 1 13.09.2026 -
Mandla Vilakazi Black Aces Actif 83 / 91 40% 1 13.09.2026 -
Kévin Denkey FC Cincinnati Actif 117 / 119 40% 1 11.09.2026 -
Ayoub Jabbari FC Cincinnati Actif 106 / 113 40% 1 11.09.2026 -
Yanela Mbuthuma Orlando Pirates Actif 108 / 98 40% 2 10.09.2026 -
Makabi Lilepo Kaizer Chiefs Actif 100 / 108 40% 1 10.09.2026 -
Myrto Uzuni Austin FC Actif 134 / 135 40% 4 07.09.2026 -
Ahmet Arslan Breidablik Actif 102 / 113 40% 3 06.09.2026 -
James Adeniyi Katsina United Actif 91 / 97 40% 1 05.09.2026 -
Macaulay Langstaff Millwall Actif 125 / 114 40% 1 30.08.2026 -
Alonso Martínez New York City Actif 121 / 127 40% 1 29.08.2026 -
Rhian Brewster Derby County Actif 118 / 125 40% 1 29.08.2026 -
Leonardo Campana New England Revolution Actif 120 / 129 40% 1 27.08.2026 -
Lewis McCann Fleetwood Town Actif 86 / 110 40% 1 27.08.2026 -
Chukwuemeka Obioma Abia Warriors Actif 85 / 94 40% 1 22.08.2026 -
Marcus Ingvartsen San Diego Football Club Actif 121 / 131 40% 1 20.08.2026 -
Kevin Kelsy Portland Timbers Actif 121 / 111 40% 1 07.08.2026 -
Luca Connell Barnsley Actif 103 / 100 40% 1 01.08.2026 -